MAS146 YMML-WMKK
Flight info
| Callsign | MAS146 |
|---|---|
| Flight time | N/A |
| Altitude | 38000 |
| Route | KEPPA H164 LEC A461 AS A587 DOPUK/N0487F400 A587 ONOXA G326 BLI M635 JUNHA DCT IRTAD A464 SJ G579 VJB A457 GUPTA GUPTA1H |
| Aircraft | A359/H-SDE2E3GHIJ3J4J5LM1ORWXY/LB1D1 |
Departure
| Time | N/A |
|---|---|
| Airport | Melbourne Airport (YMML) |
Arrival
| Time | 2026-05-03 23:43 |
|---|---|
| Airport | Kuala Lumpur International Airport (WMKK) |
| Time | Latitude | Longitude | Altitude | Speed | Heading |
|---|---|---|---|---|---|
| 2026-05-03 20:15 | -13.69780 | 122.60053 | 39938 ft | 469 kts | 309° |
| 2026-05-03 20:15 | -13.65147 | 122.55302 | 39940 ft | 470 kts | 309° |
| 2026-05-03 20:16 | -13.60546 | 122.50587 | 39940 ft | 470 kts | 309° |
| 2026-05-03 20:16 | -13.55911 | 122.45839 | 39939 ft | 470 kts | 309° |
| 2026-05-03 20:17 | -13.51274 | 122.41093 | 39939 ft | 470 kts | 309° |
| 2026-05-03 20:17 | -13.46629 | 122.36341 | 39937 ft | 471 kts | 309° |
| 2026-05-03 20:18 | -13.41982 | 122.31590 | 39939 ft | 471 kts | 309° |
| 2026-05-03 20:18 | -13.37335 | 122.26842 | 39938 ft | 471 kts | 309° |
| 2026-05-03 20:19 | -13.32686 | 122.22094 | 39941 ft | 471 kts | 309° |
| 2026-05-03 20:19 | -13.28060 | 122.17372 | 39938 ft | 472 kts | 310° |
| 2026-05-03 20:20 | -13.23400 | 122.12619 | 39940 ft | 472 kts | 310° |
| 2026-05-03 20:20 | -13.18730 | 122.07858 | 39939 ft | 473 kts | 310° |
| 2026-05-03 20:21 | -13.14054 | 122.03095 | 39938 ft | 473 kts | 310° |
| 2026-05-03 20:21 | -13.09377 | 121.98331 | 39936 ft | 474 kts | 310° |
| 2026-05-03 20:22 | -13.04718 | 121.93591 | 39940 ft | 474 kts | 310° |
| 2026-05-03 20:22 | -13.00031 | 121.88823 | 39939 ft | 474 kts | 310° |
| 2026-05-03 20:23 | -12.95349 | 121.84063 | 39935 ft | 474 kts | 310° |
| 2026-05-03 20:23 | -12.90685 | 121.79324 | 39935 ft | 474 kts | 310° |
| 2026-05-03 20:24 | -12.85985 | 121.74552 | 39939 ft | 475 kts | 310° |
| 2026-05-03 20:24 | -12.81293 | 121.69790 | 39938 ft | 475 kts | 310° |
| 2026-05-03 20:25 | -12.76591 | 121.65021 | 39936 ft | 475 kts | 310° |
| 2026-05-03 20:25 | -12.71889 | 121.60255 | 39937 ft | 475 kts | 310° |
| 2026-05-03 20:26 | -12.67175 | 121.55478 | 39933 ft | 476 kts | 310° |
| 2026-05-03 20:26 | -12.62497 | 121.50741 | 39934 ft | 476 kts | 310° |
| 2026-05-03 20:27 | -12.57782 | 121.45969 | 39933 ft | 476 kts | 310° |
| 2026-05-03 20:27 | -12.53069 | 121.41202 | 39933 ft | 476 kts | 310° |
| 2026-05-03 20:28 | -12.48353 | 121.36434 | 39932 ft | 476 kts | 310° |
| 2026-05-03 20:28 | -12.43639 | 121.31672 | 39933 ft | 476 kts | 310° |
| 2026-05-03 20:29 | -12.38945 | 121.26932 | 39930 ft | 476 kts | 310° |
| 2026-05-03 20:29 | -12.34224 | 121.22167 | 39930 ft | 477 kts | 310° |
| 2026-05-03 20:30 | -12.29504 | 121.17405 | 39935 ft | 477 kts | 310° |
| 2026-05-03 20:30 | -12.24777 | 121.12639 | 39933 ft | 477 kts | 310° |
| 2026-05-03 20:31 | -12.20073 | 121.07899 | 39931 ft | 477 kts | 310° |
| 2026-05-03 20:31 | -12.15343 | 121.03134 | 39928 ft | 477 kts | 310° |
| 2026-05-03 20:32 | -12.11376 | 120.99141 | 39923 ft | 477 kts | 310° |
| 2026-05-03 20:32 | -12.06675 | 120.94410 | 39931 ft | 477 kts | 310° |
| 2026-05-03 20:33 | -12.01959 | 120.89618 | 39936 ft | 476 kts | 308° |
| 2026-05-03 20:33 | -11.98137 | 120.84188 | 39914 ft | 468 kts | 296° |
| 2026-05-03 20:34 | -11.94909 | 120.78413 | 39931 ft | 468 kts | 295° |
| 2026-05-03 20:34 | -11.91789 | 120.72613 | 39921 ft | 468 kts | 294° |
| 2026-05-03 20:35 | -11.88642 | 120.66779 | 39926 ft | 469 kts | 295° |
| 2026-05-03 20:35 | -11.85475 | 120.60954 | 39930 ft | 469 kts | 295° |
| 2026-05-03 20:36 | -11.82303 | 120.55139 | 39921 ft | 469 kts | 295° |
| 2026-05-03 20:36 | -11.79140 | 120.49350 | 39912 ft | 469 kts | 295° |
| 2026-05-03 20:37 | -11.75959 | 120.43525 | 39932 ft | 469 kts | 295° |
| 2026-05-03 20:37 | -11.72780 | 120.37711 | 39930 ft | 469 kts | 295° |
| 2026-05-03 20:38 | -11.69606 | 120.31898 | 39923 ft | 469 kts | 295° |
| 2026-05-03 20:38 | -11.66418 | 120.26075 | 39918 ft | 470 kts | 295° |
| 2026-05-03 20:39 | -11.63233 | 120.20260 | 39910 ft | 470 kts | 295° |
| 2026-05-03 20:39 | -11.60060 | 120.14471 | 39925 ft | 470 kts | 295° |
| 2026-05-03 20:40 | -11.56876 | 120.08657 | 39915 ft | 470 kts | 295° |
| 2026-05-03 20:40 | -11.53690 | 120.02849 | 39917 ft | 469 kts | 295° |
| 2026-05-03 20:41 | -11.50497 | 119.97030 | 39924 ft | 470 kts | 295° |
| 2026-05-03 20:41 | -11.47302 | 119.91209 | 39922 ft | 469 kts | 295° |
| 2026-05-03 20:42 | -11.44127 | 119.85428 | 39923 ft | 470 kts | 295° |
| 2026-05-03 20:42 | -11.40929 | 119.79601 | 39917 ft | 470 kts | 295° |
| 2026-05-03 20:43 | -11.37732 | 119.73795 | 39926 ft | 470 kts | 295° |
| 2026-05-03 20:43 | -11.34534 | 119.67986 | 39924 ft | 470 kts | 295° |
| 2026-05-03 20:44 | -11.31335 | 119.62174 | 39921 ft | 470 kts | 295° |
| 2026-05-03 20:44 | -11.28130 | 119.56359 | 39915 ft | 470 kts | 295° |
| 2026-05-03 20:45 | -11.24928 | 119.50551 | 39921 ft | 470 kts | 295° |
| 2026-05-03 20:45 | -11.21740 | 119.44772 | 39920 ft | 470 kts | 295° |
| 2026-05-03 20:46 | -11.18525 | 119.38947 | 39916 ft | 470 kts | 295° |
| 2026-05-03 20:46 | -11.15317 | 119.33138 | 39914 ft | 471 kts | 295° |
| 2026-05-03 20:47 | -11.12103 | 119.27321 | 39918 ft | 471 kts | 295° |
| 2026-05-03 20:47 | -11.08886 | 119.21503 | 39913 ft | 471 kts | 295° |
| 2026-05-03 20:48 | -11.05689 | 119.15724 | 39914 ft | 471 kts | 295° |
| 2026-05-03 20:48 | -11.02462 | 119.09893 | 39916 ft | 472 kts | 296° |
| 2026-05-03 20:49 | -10.99254 | 119.04101 | 39912 ft | 472 kts | 296° |
| 2026-05-03 20:49 | -10.96049 | 118.98316 | 39910 ft | 472 kts | 296° |
| 2026-05-03 20:50 | -10.92822 | 118.92496 | 39906 ft | 472 kts | 296° |
| 2026-05-03 20:50 | -10.89596 | 118.86682 | 39904 ft | 472 kts | 296° |
| 2026-05-03 20:51 | -10.86356 | 118.80843 | 39910 ft | 472 kts | 296° |
| 2026-05-03 20:51 | -10.83147 | 118.75066 | 39912 ft | 472 kts | 296° |
| 2026-05-03 20:52 | -10.79894 | 118.69211 | 39914 ft | 472 kts | 296° |
| 2026-05-03 20:52 | -10.76680 | 118.63430 | 39917 ft | 472 kts | 296° |
| 2026-05-03 20:53 | -10.73444 | 118.57612 | 39913 ft | 472 kts | 296° |
| 2026-05-03 20:53 | -10.70207 | 118.51796 | 39914 ft | 473 kts | 296° |
| 2026-05-03 20:54 | -10.66958 | 118.45963 | 39915 ft | 473 kts | 296° |
| 2026-05-03 20:54 | -10.62092 | 118.37230 | 39911 ft | 473 kts | 296° |
| 2026-05-03 20:55 | -10.58847 | 118.31412 | 39906 ft | 473 kts | 296° |
| 2026-05-03 20:55 | -10.55615 | 118.25619 | 39911 ft | 474 kts | 296° |
| 2026-05-03 20:56 | -10.52357 | 118.19783 | 39907 ft | 474 kts | 296° |
| 2026-05-03 20:56 | -10.49103 | 118.13956 | 39912 ft | 474 kts | 296° |
| 2026-05-03 20:57 | -10.45848 | 118.08132 | 39911 ft | 474 kts | 296° |
| 2026-05-03 20:57 | -10.42609 | 118.02340 | 39907 ft | 474 kts | 296° |
| 2026-05-03 20:58 | -10.39349 | 117.96511 | 39906 ft | 474 kts | 296° |
| 2026-05-03 20:58 | -10.36089 | 117.90687 | 39909 ft | 474 kts | 296° |
| 2026-05-03 20:59 | -10.32827 | 117.84863 | 39908 ft | 474 kts | 296° |
| 2026-05-03 20:59 | -10.29560 | 117.79032 | 39906 ft | 475 kts | 296° |
| 2026-05-03 21:00 | -10.26842 | 117.74185 | 39904 ft | 475 kts | 296° |
| 2026-05-03 21:00 | -10.23040 | 117.67407 | 39905 ft | 475 kts | 296° |
| 2026-05-03 21:01 | -10.19769 | 117.61577 | 39907 ft | 475 kts | 296° |
| 2026-05-03 21:01 | -10.16495 | 117.55745 | 39908 ft | 476 kts | 296° |
| 2026-05-03 21:02 | -10.13214 | 117.49906 | 39907 ft | 476 kts | 296° |
| 2026-05-03 21:02 | -10.09949 | 117.44097 | 39901 ft | 476 kts | 297° |
| 2026-05-03 21:03 | -10.06642 | 117.38218 | 39909 ft | 476 kts | 297° |
| 2026-05-03 21:03 | -10.03369 | 117.32403 | 39907 ft | 476 kts | 297° |
| 2026-05-03 21:04 | -9.99986 | 117.26615 | 39906 ft | 477 kts | 298° |
| 2026-05-03 21:04 | -9.96538 | 117.20851 | 39905 ft | 478 kts | 298° |
| 2026-05-03 21:05 | -9.93100 | 117.15081 | 39900 ft | 478 kts | 298° |
| 2026-05-03 21:05 | -9.89695 | 117.09339 | 39902 ft | 478 kts | 298° |
| 2026-05-03 21:06 | -9.86268 | 117.03551 | 39905 ft | 478 kts | 298° |
| 2026-05-03 21:06 | -9.82845 | 116.97772 | 39903 ft | 478 kts | 298° |
| 2026-05-03 21:07 | -9.79410 | 116.91979 | 39905 ft | 479 kts | 298° |
| 2026-05-03 21:07 | -9.75986 | 116.86206 | 39903 ft | 479 kts | 298° |
| 2026-05-03 21:08 | -9.72555 | 116.80423 | 39904 ft | 479 kts | 298° |
| 2026-05-03 21:08 | -9.69130 | 116.74614 | 39901 ft | 479 kts | 298° |
| 2026-05-03 21:09 | -9.65711 | 116.68810 | 39893 ft | 479 kts | 298° |
| 2026-05-03 21:09 | -9.62285 | 116.63002 | 39903 ft | 480 kts | 298° |
| 2026-05-03 21:10 | -9.58876 | 116.57229 | 39897 ft | 480 kts | 298° |
| 2026-05-03 21:10 | -9.55437 | 116.51409 | 39901 ft | 480 kts | 298° |
| 2026-05-03 21:11 | -9.52002 | 116.45598 | 39899 ft | 480 kts | 298° |
| 2026-05-03 21:11 | -9.48571 | 116.39796 | 39899 ft | 480 kts | 298° |
| 2026-05-03 21:12 | -9.45156 | 116.34024 | 39897 ft | 480 kts | 298° |
| 2026-05-03 21:12 | -9.41714 | 116.28211 | 39894 ft | 480 kts | 298° |
| 2026-05-03 21:13 | -9.38280 | 116.22411 | 39893 ft | 480 kts | 298° |
| 2026-05-03 21:13 | -9.34843 | 116.16611 | 39896 ft | 481 kts | 298° |
| 2026-05-03 21:14 | -9.31399 | 116.10801 | 39896 ft | 481 kts | 298° |
| 2026-05-03 21:14 | -9.27959 | 116.05001 | 39896 ft | 481 kts | 298° |
| 2026-05-03 21:15 | -9.25091 | 116.00168 | 39897 ft | 481 kts | 298° |
| 2026-05-03 21:15 | -9.21643 | 115.94357 | 39897 ft | 481 kts | 298° |
| 2026-05-03 21:16 | -9.18195 | 115.88551 | 39897 ft | 481 kts | 298° |
| 2026-05-03 21:16 | -9.14744 | 115.82744 | 39891 ft | 481 kts | 298° |
| 2026-05-03 21:17 | -9.14003 | 115.81497 | 39894 ft | 481 kts | 298° |
| 2026-05-03 21:17 | -9.10840 | 115.76176 | 39894 ft | 481 kts | 298° |
| 2026-05-03 21:18 | -9.07381 | 115.70361 | 39894 ft | 481 kts | 298° |
| 2026-05-03 21:18 | -9.03949 | 115.64592 | 39889 ft | 481 kts | 298° |
| 2026-05-03 21:19 | -9.00492 | 115.58786 | 39891 ft | 482 kts | 298° |
| 2026-05-03 21:19 | -8.97036 | 115.52982 | 39886 ft | 482 kts | 298° |
| 2026-05-03 21:20 | -8.93577 | 115.47178 | 39893 ft | 482 kts | 298° |
| 2026-05-03 21:20 | -8.90117 | 115.41373 | 39884 ft | 481 kts | 298° |
| 2026-05-03 21:21 | -8.86657 | 115.35572 | 39890 ft | 481 kts | 298° |
| 2026-05-03 21:21 | -8.83193 | 115.29766 | 39887 ft | 482 kts | 298° |
| 2026-05-03 21:22 | -8.79751 | 115.23999 | 39881 ft | 482 kts | 298° |
| 2026-05-03 21:22 | -8.76150 | 115.18280 | 39887 ft | 484 kts | 305° |
| 2026-05-03 21:23 | -8.71338 | 115.13499 | 39887 ft | 488 kts | 319° |
| 2026-05-03 21:23 | -8.65893 | 115.09389 | 39885 ft | 488 kts | 322° |
| 2026-05-03 21:24 | -8.60360 | 115.05393 | 39892 ft | 488 kts | 322° |
| 2026-05-03 21:24 | -8.54860 | 115.01413 | 39901 ft | 488 kts | 322° |
| 2026-05-03 21:25 | -8.49344 | 114.97391 | 39907 ft | 488 kts | 321° |
| 2026-05-03 21:25 | -8.43869 | 114.93387 | 39913 ft | 488 kts | 321° |
| 2026-05-03 21:26 | -8.38449 | 114.89423 | 39910 ft | 488 kts | 321° |
| 2026-05-03 21:26 | -8.32951 | 114.85405 | 39910 ft | 488 kts | 322° |
| 2026-05-03 21:27 | -8.27448 | 114.81385 | 39905 ft | 488 kts | 322° |
| 2026-05-03 21:27 | -8.21942 | 114.77365 | 39904 ft | 488 kts | 322° |
| 2026-05-03 21:28 | -8.16441 | 114.73350 | 39902 ft | 488 kts | 322° |
| 2026-05-03 21:28 | -8.10927 | 114.69326 | 39896 ft | 488 kts | 322° |
| 2026-05-03 21:29 | -8.05467 | 114.65343 | 39899 ft | 487 kts | 322° |
| 2026-05-03 21:29 | -7.99974 | 114.61338 | 39893 ft | 487 kts | 322° |
| 2026-05-03 21:30 | -7.94473 | 114.57328 | 39895 ft | 487 kts | 322° |
| 2026-05-03 21:30 | -7.88965 | 114.53315 | 39896 ft | 487 kts | 322° |
| 2026-05-03 21:31 | -7.83472 | 114.49314 | 39893 ft | 487 kts | 322° |
| 2026-05-03 21:31 | -7.77981 | 114.45308 | 39896 ft | 487 kts | 322° |
| 2026-05-03 21:32 | -7.72520 | 114.41333 | 39892 ft | 487 kts | 322° |
| 2026-05-03 21:32 | -7.67022 | 114.37337 | 39891 ft | 487 kts | 322° |
| 2026-05-03 21:33 | -7.61524 | 114.33326 | 39885 ft | 487 kts | 322° |
| 2026-05-03 21:33 | -7.56027 | 114.29326 | 39881 ft | 487 kts | 322° |
| 2026-05-03 21:34 | -7.50522 | 114.25337 | 39880 ft | 487 kts | 322° |
| 2026-05-03 21:34 | -7.45049 | 114.21364 | 39881 ft | 486 kts | 322° |
| 2026-05-03 21:35 | -7.39564 | 114.17380 | 39876 ft | 485 kts | 322° |
| 2026-05-03 21:35 | -7.34091 | 114.13403 | 39874 ft | 485 kts | 322° |
| 2026-05-03 21:36 | -7.28621 | 114.09429 | 39878 ft | 485 kts | 322° |
| 2026-05-03 21:36 | -7.23142 | 114.05452 | 39878 ft | 485 kts | 322° |
| 2026-05-03 21:37 | -7.17692 | 114.01498 | 39875 ft | 485 kts | 323° |
| 2026-05-03 21:37 | -7.12216 | 113.97526 | 39880 ft | 485 kts | 323° |
| 2026-05-03 21:38 | -7.06729 | 113.93550 | 39876 ft | 485 kts | 323° |
| 2026-05-03 21:38 | -7.01244 | 113.89570 | 39872 ft | 486 kts | 323° |
| 2026-05-03 21:39 | -6.95754 | 113.85600 | 39874 ft | 485 kts | 322° |
| 2026-05-03 21:39 | -6.90304 | 113.81658 | 39877 ft | 486 kts | 323° |
| 2026-05-03 21:40 | -6.84832 | 113.77684 | 39878 ft | 484 kts | 323° |
| 2026-05-03 21:40 | -6.79394 | 113.73719 | 39873 ft | 483 kts | 323° |
| 2026-05-03 21:41 | -6.73928 | 113.69783 | 39870 ft | 483 kts | 323° |
| 2026-05-03 21:41 | -6.68462 | 113.65861 | 39874 ft | 483 kts | 323° |
| 2026-05-03 21:42 | -6.63013 | 113.61917 | 39878 ft | 481 kts | 323° |
| 2026-05-03 21:42 | -6.57617 | 113.58008 | 39873 ft | 480 kts | 324° |
| 2026-05-03 21:43 | -6.52190 | 113.54087 | 39871 ft | 480 kts | 324° |
| 2026-05-03 21:43 | -6.46760 | 113.50170 | 39873 ft | 480 kts | 324° |
| 2026-05-03 21:44 | -6.41327 | 113.46250 | 39868 ft | 480 kts | 324° |
| 2026-05-03 21:44 | -6.35982 | 113.42393 | 39877 ft | 480 kts | 324° |
| 2026-05-03 21:45 | -6.30560 | 113.38481 | 39876 ft | 480 kts | 324° |
| 2026-05-03 21:45 | -6.25341 | 113.34367 | 39871 ft | 480 kts | 315° |
| 2026-05-03 21:46 | -6.20984 | 113.29270 | 39868 ft | 481 kts | 308° |
| 2026-05-03 21:46 | -6.16882 | 113.23941 | 39869 ft | 482 kts | 307° |
| 2026-05-03 21:47 | -6.12813 | 113.18579 | 39871 ft | 482 kts | 307° |
| 2026-05-03 21:47 | -6.08728 | 113.13229 | 39871 ft | 482 kts | 308° |
| 2026-05-03 21:48 | -6.04642 | 113.07907 | 39868 ft | 483 kts | 308° |
| 2026-05-03 21:48 | -6.00538 | 113.02573 | 39871 ft | 483 kts | 308° |
| 2026-05-03 21:49 | -5.96415 | 112.97213 | 39866 ft | 483 kts | 308° |
| 2026-05-03 21:49 | -5.92325 | 112.91896 | 39867 ft | 483 kts | 307° |
| 2026-05-03 21:50 | -5.88209 | 112.86546 | 39872 ft | 483 kts | 307° |
| 2026-05-03 21:50 | -5.84087 | 112.81190 | 39866 ft | 483 kts | 307° |
| 2026-05-03 21:51 | -5.79993 | 112.75872 | 39870 ft | 484 kts | 307° |
| 2026-05-03 21:51 | -5.75872 | 112.70521 | 39871 ft | 484 kts | 307° |
| 2026-05-03 21:52 | -5.71751 | 112.65171 | 39868 ft | 484 kts | 307° |
| 2026-05-03 21:52 | -5.67634 | 112.59826 | 39873 ft | 484 kts | 307° |
| 2026-05-03 21:53 | -5.63509 | 112.54474 | 39870 ft | 484 kts | 307° |
| 2026-05-03 21:53 | -5.59412 | 112.49160 | 39867 ft | 484 kts | 307° |
| 2026-05-03 21:54 | -5.55289 | 112.43813 | 39876 ft | 484 kts | 307° |
| 2026-05-03 21:54 | -5.51158 | 112.38456 | 39866 ft | 485 kts | 308° |
| 2026-05-03 21:55 | -5.47047 | 112.33128 | 39871 ft | 485 kts | 308° |
| 2026-05-03 21:55 | -5.42916 | 112.27779 | 39869 ft | 484 kts | 307° |
| 2026-05-03 21:56 | -5.38781 | 112.22426 | 39870 ft | 486 kts | 308° |
| 2026-05-03 21:56 | -5.34630 | 112.17041 | 39860 ft | 485 kts | 308° |
| 2026-05-03 21:57 | -5.30491 | 112.11701 | 39869 ft | 483 kts | 308° |
| 2026-05-03 21:57 | -5.26371 | 112.06384 | 39870 ft | 488 kts | 308° |
| 2026-05-03 21:58 | -5.22208 | 112.01002 | 39861 ft | 489 kts | 308° |
| 2026-05-03 21:58 | -5.18048 | 111.95596 | 39867 ft | 487 kts | 308° |
| 2026-05-03 21:59 | -5.14587 | 111.91107 | 39871 ft | 490 kts | 308° |
| 2026-05-03 21:59 | -5.09729 | 111.84824 | 39869 ft | 490 kts | 308° |
| 2026-05-03 22:00 | -5.06233 | 111.80298 | 39868 ft | 489 kts | 308° |
| 2026-05-03 22:00 | -5.02086 | 111.74928 | 39873 ft | 490 kts | 308° |
| 2026-05-03 22:01 | -4.97907 | 111.69526 | 39873 ft | 489 kts | 308° |
| 2026-05-03 22:01 | -4.93728 | 111.64133 | 39869 ft | 489 kts | 308° |
| 2026-05-03 22:02 | -4.89542 | 111.58723 | 39875 ft | 491 kts | 308° |
| 2026-05-03 22:02 | -4.85332 | 111.53298 | 39869 ft | 492 kts | 308° |
| 2026-05-03 22:03 | -4.81153 | 111.47928 | 39871 ft | 490 kts | 308° |
| 2026-05-03 22:03 | -4.76953 | 111.42512 | 39871 ft | 493 kts | 308° |
| 2026-05-03 22:04 | -4.72754 | 111.37059 | 39870 ft | 494 kts | 307° |
| 2026-05-03 22:04 | -4.68590 | 111.31652 | 39875 ft | 492 kts | 308° |
| 2026-05-03 22:05 | -4.64390 | 111.26220 | 39873 ft | 490 kts | 308° |
| 2026-05-03 22:05 | -4.60175 | 111.20800 | 39870 ft | 493 kts | 308° |
| 2026-05-03 22:06 | -4.55996 | 111.15375 | 39874 ft | 491 kts | 308° |
| 2026-05-03 22:06 | -4.51809 | 111.09913 | 39874 ft | 494 kts | 308° |
| 2026-05-03 22:07 | -4.47621 | 111.04467 | 39870 ft | 492 kts | 308° |
| 2026-05-03 22:07 | -4.43444 | 110.99075 | 39874 ft | 493 kts | 308° |
| 2026-05-03 22:08 | -4.39250 | 110.93633 | 39872 ft | 494 kts | 307° |
| 2026-05-03 22:08 | -4.35042 | 110.88173 | 39872 ft | 494 kts | 308° |
| 2026-05-03 22:09 | -4.30842 | 110.82763 | 39868 ft | 492 kts | 308° |
| 2026-05-03 22:10 | -4.24547 | 110.74586 | 39869 ft | 496 kts | 308° |
| 2026-05-03 22:10 | -4.20326 | 110.69129 | 39871 ft | 492 kts | 308° |
| 2026-05-03 22:11 | -4.16151 | 110.63701 | 39874 ft | 493 kts | 308° |
| 2026-05-03 22:11 | -4.12015 | 110.58335 | 39872 ft | 493 kts | 308° |
| 2026-05-03 22:12 | -4.07838 | 110.52908 | 39871 ft | 492 kts | 308° |
| 2026-05-03 22:12 | -4.03647 | 110.47513 | 39872 ft | 492 kts | 308° |
| 2026-05-03 22:13 | -3.99457 | 110.42068 | 39875 ft | 493 kts | 307° |
| 2026-05-03 22:13 | -3.95252 | 110.36656 | 39870 ft | 493 kts | 309° |
| 2026-05-03 22:14 | -3.90816 | 110.31411 | 39875 ft | 493 kts | 311° |
| 2026-05-03 22:14 | -3.86277 | 110.26233 | 39859 ft | 493 kts | 311° |
| 2026-05-03 22:15 | -3.81774 | 110.21056 | 39869 ft | 492 kts | 311° |
| 2026-05-03 22:15 | -3.77297 | 110.15874 | 39869 ft | 492 kts | 311° |
| 2026-05-03 22:16 | -3.72858 | 110.10709 | 39874 ft | 492 kts | 311° |
| 2026-05-03 22:16 | -3.68399 | 110.05504 | 39867 ft | 491 kts | 310° |
| 2026-05-03 22:17 | -3.63949 | 110.00314 | 39875 ft | 491 kts | 311° |
| 2026-05-03 22:17 | -3.59504 | 109.95124 | 39874 ft | 491 kts | 311° |
| 2026-05-03 22:18 | -3.55061 | 109.89957 | 39874 ft | 494 kts | 311° |
| 2026-05-03 22:18 | -3.50579 | 109.84768 | 39871 ft | 493 kts | 311° |
| 2026-05-03 22:19 | -3.46106 | 109.79578 | 39873 ft | 491 kts | 311° |
| 2026-05-03 22:19 | -3.41652 | 109.74372 | 39870 ft | 491 kts | 311° |
| 2026-05-03 22:20 | -3.37181 | 109.69179 | 39876 ft | 493 kts | 311° |
| 2026-05-03 22:20 | -3.32713 | 109.63982 | 39873 ft | 492 kts | 311° |
| 2026-05-03 22:21 | -3.28253 | 109.58791 | 39872 ft | 491 kts | 311° |
| 2026-05-03 22:21 | -3.23816 | 109.53605 | 39870 ft | 490 kts | 311° |
| 2026-05-03 22:22 | -3.19399 | 109.48473 | 39876 ft | 490 kts | 311° |
| 2026-05-03 22:22 | -3.14937 | 109.43291 | 39877 ft | 491 kts | 311° |
| 2026-05-03 22:23 | -3.10493 | 109.38123 | 39875 ft | 490 kts | 311° |
| 2026-05-03 22:23 | -3.06041 | 109.32953 | 39877 ft | 490 kts | 311° |
| 2026-05-03 22:24 | -3.01576 | 109.27773 | 39875 ft | 490 kts | 311° |
| 2026-05-03 22:24 | -2.97166 | 109.22627 | 39874 ft | 488 kts | 311° |
| 2026-05-03 22:25 | -2.92730 | 109.17480 | 39872 ft | 489 kts | 311° |
| 2026-05-03 22:25 | -2.88269 | 109.12312 | 39872 ft | 490 kts | 311° |
| 2026-05-03 22:26 | -2.83809 | 109.07154 | 39872 ft | 491 kts | 311° |
| 2026-05-03 22:26 | -2.79327 | 109.01983 | 39873 ft | 491 kts | 312° |
| 2026-05-03 22:27 | -2.74854 | 108.96816 | 39873 ft | 491 kts | 311° |
| 2026-05-03 22:27 | -2.70413 | 108.91672 | 39873 ft | 492 kts | 311° |
| 2026-05-03 22:28 | -2.65936 | 108.86488 | 39871 ft | 492 kts | 311° |
| 2026-05-03 22:28 | -2.61440 | 108.81287 | 39871 ft | 494 kts | 311° |
| 2026-05-03 22:29 | -2.56982 | 108.76113 | 39873 ft | 489 kts | 311° |
| 2026-05-03 22:29 | -2.52528 | 108.70974 | 39873 ft | 494 kts | 312° |
| 2026-05-03 22:30 | -2.48012 | 108.65795 | 39875 ft | 491 kts | 312° |
| 2026-05-03 22:30 | -2.43533 | 108.60614 | 39875 ft | 492 kts | 311° |
| 2026-05-03 22:31 | -2.39040 | 108.55398 | 39873 ft | 494 kts | 311° |
| 2026-05-03 22:31 | -2.34561 | 108.50168 | 39872 ft | 494 kts | 311° |
| 2026-05-03 22:32 | -2.30108 | 108.44993 | 39869 ft | 493 kts | 311° |
| 2026-05-03 22:32 | -2.25618 | 108.39793 | 39869 ft | 494 kts | 311° |
| 2026-05-03 22:33 | -2.21122 | 108.34587 | 39870 ft | 494 kts | 311° |
| 2026-05-03 22:33 | -2.16629 | 108.29377 | 39870 ft | 494 kts | 311° |
| 2026-05-03 22:34 | -2.12128 | 108.24158 | 39871 ft | 494 kts | 311° |
| 2026-05-03 22:34 | -2.07633 | 108.18954 | 39871 ft | 494 kts | 311° |
| 2026-05-03 22:35 | -2.03141 | 108.13757 | 39872 ft | 494 kts | 311° |
| 2026-05-03 22:35 | -1.98677 | 108.08584 | 39874 ft | 495 kts | 311° |
| 2026-05-03 22:36 | -1.94186 | 108.03358 | 39872 ft | 495 kts | 311° |
| 2026-05-03 22:36 | -1.89689 | 107.98152 | 39870 ft | 494 kts | 311° |
| 2026-05-03 22:37 | -1.85190 | 107.92951 | 39867 ft | 494 kts | 311° |
| 2026-05-03 22:37 | -1.80718 | 107.87741 | 39867 ft | 494 kts | 311° |
| 2026-05-03 22:38 | -1.76235 | 107.82538 | 39873 ft | 493 kts | 311° |
| 2026-05-03 22:38 | -1.71760 | 107.77358 | 39870 ft | 492 kts | 311° |
| 2026-05-03 22:39 | -1.67286 | 107.72180 | 39871 ft | 492 kts | 311° |
| 2026-05-03 22:39 | -1.62845 | 107.67034 | 39871 ft | 491 kts | 311° |
| 2026-05-03 22:40 | -1.58374 | 107.61851 | 39869 ft | 491 kts | 311° |
| 2026-05-03 22:40 | -1.53912 | 107.56682 | 39870 ft | 491 kts | 311° |
| 2026-05-03 22:41 | -1.49450 | 107.51510 | 39869 ft | 491 kts | 311° |
| 2026-05-03 22:41 | -1.44989 | 107.46341 | 39870 ft | 491 kts | 311° |
| 2026-05-03 22:42 | -1.40546 | 107.41194 | 39869 ft | 491 kts | 311° |
| 2026-05-03 22:42 | -1.36088 | 107.36033 | 39869 ft | 490 kts | 311° |
| 2026-05-03 22:43 | -1.31574 | 107.30914 | 39867 ft | 490 kts | 311° |
| 2026-05-03 22:43 | -1.27030 | 107.25815 | 39869 ft | 490 kts | 312° |
| 2026-05-03 22:44 | -1.22532 | 107.20760 | 39870 ft | 490 kts | 311° |
| 2026-05-03 22:44 | -1.18744 | 107.16491 | 39866 ft | 490 kts | 311° |
| 2026-05-03 22:45 | -1.13491 | 107.10568 | 39871 ft | 490 kts | 311° |
| 2026-05-03 22:45 | -1.09704 | 107.06297 | 39869 ft | 490 kts | 311° |
| 2026-05-03 22:46 | -1.05213 | 107.01232 | 39870 ft | 490 kts | 311° |
| 2026-05-03 22:46 | -1.00690 | 106.96133 | 39872 ft | 490 kts | 311° |
| 2026-05-03 22:47 | -0.96167 | 106.91032 | 39869 ft | 489 kts | 311° |
| 2026-05-03 22:47 | -0.93143 | 106.87624 | 39867 ft | 489 kts | 312° |
| 2026-05-03 22:48 | -0.91148 | 106.85374 | 39868 ft | 489 kts | 311° |
| 2026-05-03 22:48 | -0.86635 | 106.80286 | 39871 ft | 489 kts | 312° |
| 2026-05-03 22:49 | -0.82118 | 106.75194 | 39870 ft | 489 kts | 312° |
| 2026-05-03 22:49 | -0.77634 | 106.70139 | 39870 ft | 489 kts | 312° |
| 2026-05-03 22:50 | -0.73121 | 106.65051 | 39869 ft | 488 kts | 312° |
| 2026-05-03 22:50 | -0.68618 | 106.59975 | 39869 ft | 488 kts | 312° |
| 2026-05-03 22:51 | -0.64109 | 106.54893 | 39868 ft | 488 kts | 312° |
| 2026-05-03 22:51 | -0.59604 | 106.49813 | 39869 ft | 488 kts | 311° |
| 2026-05-03 22:52 | -0.55160 | 106.44738 | 39870 ft | 488 kts | 311° |
| 2026-05-03 22:52 | -0.50699 | 106.39623 | 39873 ft | 488 kts | 311° |
| 2026-05-03 22:53 | -0.46237 | 106.34518 | 39871 ft | 487 kts | 311° |
| 2026-05-03 22:53 | -0.41775 | 106.29421 | 39871 ft | 487 kts | 311° |
| 2026-05-03 22:54 | -0.37306 | 106.24318 | 39871 ft | 487 kts | 311° |
| 2026-05-03 22:54 | -0.32842 | 106.19220 | 39873 ft | 487 kts | 311° |
| 2026-05-03 22:55 | -0.28402 | 106.14150 | 39871 ft | 487 kts | 311° |
| 2026-05-03 22:55 | -0.23943 | 106.09057 | 39871 ft | 487 kts | 311° |
| 2026-05-03 22:56 | -0.19475 | 106.03955 | 39872 ft | 486 kts | 311° |
| 2026-05-03 22:56 | -0.15049 | 105.98900 | 39869 ft | 486 kts | 311° |
| 2026-05-03 22:57 | -0.10586 | 105.93804 | 39870 ft | 486 kts | 311° |
| 2026-05-03 22:57 | -0.06126 | 105.88710 | 39870 ft | 486 kts | 311° |
| 2026-05-03 22:58 | -0.01662 | 105.83613 | 39872 ft | 486 kts | 311° |
| 2026-05-03 22:58 | 0.02764 | 105.78557 | 39871 ft | 486 kts | 311° |
| 2026-05-03 22:59 | 0.07223 | 105.73466 | 39873 ft | 486 kts | 311° |
| 2026-05-03 22:59 | 0.11681 | 105.68376 | 39870 ft | 486 kts | 311° |
| 2026-05-03 23:00 | 0.16106 | 105.63323 | 39859 ft | 486 kts | 311° |
| 2026-05-03 23:00 | 0.20567 | 105.58228 | 39873 ft | 486 kts | 311° |
| 2026-05-03 23:01 | 0.25017 | 105.53145 | 39875 ft | 486 kts | 311° |
| 2026-05-03 23:01 | 0.29482 | 105.48047 | 39872 ft | 486 kts | 311° |
| 2026-05-03 23:02 | 0.33940 | 105.42956 | 39868 ft | 487 kts | 311° |
| 2026-05-03 23:02 | 0.38401 | 105.37860 | 39869 ft | 487 kts | 311° |
| 2026-05-03 23:03 | 0.42331 | 105.32412 | 39869 ft | 487 kts | 302° |
| 2026-05-03 23:03 | 0.45846 | 105.26605 | 39869 ft | 488 kts | 301° |
| 2026-05-03 23:04 | 0.49300 | 105.20737 | 39873 ft | 489 kts | 301° |
| 2026-05-03 23:04 | 0.52738 | 105.14879 | 39875 ft | 489 kts | 301° |
| 2026-05-03 23:05 | 0.56176 | 105.09049 | 39872 ft | 489 kts | 301° |
| 2026-05-03 23:05 | 0.59635 | 105.03198 | 39872 ft | 489 kts | 301° |
| 2026-05-03 23:06 | 0.63106 | 104.97333 | 39871 ft | 489 kts | 301° |
| 2026-05-03 23:06 | 0.66571 | 104.91475 | 39876 ft | 489 kts | 301° |
| 2026-05-03 23:07 | 0.70037 | 104.85617 | 39880 ft | 490 kts | 301° |
| 2026-05-03 23:07 | 0.73484 | 104.79789 | 39884 ft | 490 kts | 301° |
| 2026-05-03 23:08 | 0.76946 | 104.73937 | 39884 ft | 490 kts | 301° |
| 2026-05-03 23:08 | 0.80423 | 104.68055 | 39886 ft | 490 kts | 301° |
| 2026-05-03 23:09 | 0.83899 | 104.62178 | 39884 ft | 490 kts | 301° |
| 2026-05-03 23:09 | 0.87373 | 104.56304 | 39884 ft | 490 kts | 301° |
| 2026-05-03 23:10 | 0.90843 | 104.50432 | 39884 ft | 490 kts | 301° |
| 2026-05-03 23:10 | 0.93918 | 104.44397 | 39885 ft | 491 kts | 295° |
| 2026-05-03 23:11 | 0.96761 | 104.38191 | 39886 ft | 491 kts | 295° |
| 2026-05-03 23:11 | 0.99654 | 104.31997 | 39887 ft | 492 kts | 295° |
| 2026-05-03 23:12 | 1.02610 | 104.25829 | 39885 ft | 492 kts | 295° |
| 2026-05-03 23:12 | 1.05592 | 104.19664 | 39885 ft | 492 kts | 295° |
| 2026-05-03 23:13 | 1.08558 | 104.13549 | 39884 ft | 492 kts | 295° |
| 2026-05-03 23:13 | 1.11544 | 104.07370 | 39885 ft | 492 kts | 295° |
| 2026-05-03 23:14 | 1.14520 | 104.01208 | 39884 ft | 492 kts | 295° |
| 2026-05-03 23:14 | 1.17504 | 103.95031 | 39887 ft | 492 kts | 295° |
| 2026-05-03 23:15 | 1.20534 | 103.88947 | 39901 ft | 492 kts | 301° |
| 2026-05-03 23:15 | 1.25036 | 103.83804 | 39910 ft | 493 kts | 322° |
| 2026-05-03 23:16 | 1.30980 | 103.80457 | 39912 ft | 490 kts | 334° |
| 2026-05-03 23:16 | 1.37184 | 103.77617 | 39886 ft | 490 kts | 334° |
| 2026-05-03 23:17 | 1.43298 | 103.74602 | 39885 ft | 490 kts | 333° |
| 2026-05-03 23:17 | 1.49405 | 103.71538 | 39885 ft | 491 kts | 337° |
| 2026-05-03 23:18 | 1.55795 | 103.69271 | 39699 ft | 490 kts | 341° |
| 2026-05-03 23:18 | 1.59019 | 103.68152 | 39468 ft | 490 kts | 338° |
| 2026-05-03 23:18 | 1.62095 | 103.66677 | 39235 ft | 491 kts | 329° |
| 2026-05-03 23:18 | 1.64928 | 103.64743 | 39004 ft | 493 kts | 320° |
| 2026-05-03 23:19 | 1.67398 | 103.62366 | 38774 ft | 494 kts | 310° |
| 2026-05-03 23:19 | 1.69426 | 103.59588 | 38546 ft | 495 kts | 300° |
| 2026-05-03 23:19 | 1.71073 | 103.56570 | 38277 ft | 496 kts | 296° |
| 2026-05-03 23:19 | 1.72615 | 103.53477 | 38007 ft | 498 kts | 295° |
| 2026-05-03 23:20 | 1.74102 | 103.50381 | 37745 ft | 499 kts | 295° |
| 2026-05-03 23:20 | 1.75612 | 103.47213 | 37486 ft | 500 kts | 295° |
| 2026-05-03 23:20 | 1.77103 | 103.44100 | 37224 ft | 501 kts | 295° |
| 2026-05-03 23:20 | 1.78618 | 103.40961 | 36920 ft | 501 kts | 295° |
| 2026-05-03 23:21 | 1.80135 | 103.37843 | 36313 ft | 499 kts | 295° |
| 2026-05-03 23:21 | 1.81665 | 103.34713 | 35615 ft | 499 kts | 296° |
| 2026-05-03 23:21 | 1.83196 | 103.31593 | 34885 ft | 501 kts | 296° |
| 2026-05-03 23:21 | 1.84732 | 103.28460 | 34075 ft | 504 kts | 296° |
| 2026-05-03 23:22 | 1.87852 | 103.22110 | 32250 ft | 510 kts | 296° |
| 2026-05-03 23:22 | 1.89420 | 103.18917 | 31358 ft | 513 kts | 296° |
| 2026-05-03 23:22 | 1.90975 | 103.15746 | 30447 ft | 516 kts | 296° |
| 2026-05-03 23:23 | 1.92565 | 103.12507 | 29477 ft | 519 kts | 296° |
| 2026-05-03 23:23 | 1.94150 | 103.09278 | 28710 ft | 515 kts | 296° |
| 2026-05-03 23:23 | 1.95724 | 103.06075 | 28007 ft | 510 kts | 296° |
| 2026-05-03 23:23 | 1.97276 | 103.02912 | 27315 ft | 506 kts | 296° |
| 2026-05-03 23:24 | 1.98824 | 102.99757 | 26634 ft | 502 kts | 296° |
| 2026-05-03 23:24 | 2.00357 | 102.96632 | 25951 ft | 498 kts | 296° |
| 2026-05-03 23:24 | 2.01878 | 102.93532 | 25271 ft | 495 kts | 296° |
| 2026-05-03 23:24 | 2.03389 | 102.90453 | 24597 ft | 492 kts | 296° |
| 2026-05-03 23:25 | 2.04895 | 102.87386 | 23920 ft | 489 kts | 296° |
| 2026-05-03 23:25 | 2.06379 | 102.84382 | 23212 ft | 486 kts | 296° |
| 2026-05-03 23:25 | 2.07872 | 102.81351 | 22487 ft | 482 kts | 296° |
| 2026-05-03 23:25 | 2.09341 | 102.78359 | 21815 ft | 476 kts | 296° |
| 2026-05-03 23:26 | 2.10790 | 102.75404 | 21154 ft | 471 kts | 296° |
| 2026-05-03 23:26 | 2.12221 | 102.72476 | 20474 ft | 467 kts | 296° |
| 2026-05-03 23:26 | 2.13642 | 102.69568 | 19825 ft | 462 kts | 296° |
| 2026-05-03 23:26 | 2.15020 | 102.66743 | 19166 ft | 458 kts | 296° |
| 2026-05-03 23:27 | 2.16415 | 102.63885 | 18508 ft | 455 kts | 296° |
| 2026-05-03 23:27 | 2.17856 | 102.61106 | 17785 ft | 451 kts | 298° |
| 2026-05-03 23:27 | 2.19379 | 102.58353 | 17078 ft | 447 kts | 299° |
| 2026-05-03 23:27 | 2.20879 | 102.55646 | 16394 ft | 441 kts | 298° |
| 2026-05-03 23:28 | 2.22335 | 102.53003 | 15722 ft | 437 kts | 298° |
| 2026-05-03 23:28 | 2.23789 | 102.50349 | 15051 ft | 432 kts | 298° |
| 2026-05-03 23:28 | 2.25224 | 102.47725 | 14364 ft | 428 kts | 298° |
| 2026-05-03 23:28 | 2.26644 | 102.45123 | 13685 ft | 424 kts | 298° |
| 2026-05-03 23:29 | 2.28048 | 102.42549 | 12938 ft | 419 kts | 298° |
| 2026-05-03 23:29 | 2.29434 | 102.40006 | 12251 ft | 413 kts | 298° |
| 2026-05-03 23:29 | 2.30798 | 102.37503 | 11646 ft | 407 kts | 298° |
| 2026-05-03 23:29 | 2.31680 | 102.35883 | 11534 ft | 394 kts | 298° |
| 2026-05-03 23:30 | 2.33357 | 102.32793 | 11393 ft | 369 kts | 298° |
| 2026-05-03 23:30 | 2.34550 | 102.30591 | 11284 ft | 352 kts | 298° |
| 2026-05-03 23:30 | 2.35689 | 102.28487 | 11147 ft | 337 kts | 298° |
| 2026-05-03 23:30 | 2.36785 | 102.26466 | 10998 ft | 324 kts | 298° |
| 2026-05-03 23:31 | 2.37843 | 102.24521 | 10855 ft | 312 kts | 298° |
| 2026-05-03 23:31 | 2.38537 | 102.23247 | 10710 ft | 306 kts | 298° |
| 2026-05-03 23:31 | 2.39539 | 102.21406 | 10342 ft | 304 kts | 298° |
| 2026-05-03 23:31 | 2.40541 | 102.19566 | 10073 ft | 298 kts | 298° |
| 2026-05-03 23:32 | 2.41494 | 102.17815 | 9783 ft | 295 kts | 298° |
| 2026-05-03 23:32 | 2.42481 | 102.16003 | 9427 ft | 297 kts | 298° |
| 2026-05-03 23:32 | 2.43466 | 102.14191 | 9094 ft | 296 kts | 298° |
| 2026-05-03 23:32 | 2.44450 | 102.12381 | 8770 ft | 295 kts | 298° |
| 2026-05-03 23:33 | 2.45428 | 102.10583 | 8439 ft | 293 kts | 298° |
| 2026-05-03 23:33 | 2.46398 | 102.08799 | 8114 ft | 291 kts | 298° |
| 2026-05-03 23:33 | 2.47364 | 102.07024 | 7786 ft | 289 kts | 298° |
| 2026-05-03 23:33 | 2.48308 | 102.05289 | 7461 ft | 287 kts | 298° |
| 2026-05-03 23:34 | 2.49259 | 102.03539 | 7141 ft | 285 kts | 298° |
| 2026-05-03 23:34 | 2.50202 | 102.01802 | 6827 ft | 283 kts | 298° |
| 2026-05-03 23:34 | 2.51138 | 102.00084 | 6497 ft | 281 kts | 298° |
| 2026-05-03 23:34 | 2.52040 | 101.98360 | 6193 ft | 278 kts | 293° |
| 2026-05-03 23:35 | 2.52330 | 101.96480 | 5861 ft | 276 kts | 260° |
| 2026-05-03 23:35 | 2.51597 | 101.94771 | 5738 ft | 263 kts | 236° |
| 2026-05-03 23:35 | 2.50557 | 101.93307 | 5624 ft | 252 kts | 233° |
| 2026-05-03 23:35 | 2.49543 | 101.91919 | 5502 ft | 241 kts | 234° |
| 2026-05-03 23:36 | 2.48591 | 101.90579 | 5383 ft | 231 kts | 235° |
| 2026-05-03 23:36 | 2.48018 | 101.89206 | 5259 ft | 218 kts | 266° |
| 2026-05-03 23:36 | 2.48380 | 101.87799 | 5153 ft | 207 kts | 302° |
| 2026-05-03 23:36 | 2.49297 | 101.86742 | 4944 ft | 204 kts | 319° |
| 2026-05-03 23:37 | 2.50406 | 101.85895 | 4851 ft | 200 kts | 324° |
| 2026-05-03 23:37 | 2.51552 | 101.85119 | 4615 ft | 197 kts | 325° |
| 2026-05-03 23:37 | 2.52685 | 101.84360 | 4309 ft | 197 kts | 324° |
| 2026-05-03 23:37 | 2.53817 | 101.83596 | 4014 ft | 196 kts | 324° |
| 2026-05-03 23:38 | 2.54947 | 101.82832 | 3737 ft | 195 kts | 325° |
| 2026-05-03 23:38 | 2.56065 | 101.82082 | 3477 ft | 192 kts | 325° |
| 2026-05-03 23:38 | 2.57169 | 101.81339 | 3241 ft | 189 kts | 325° |
| 2026-05-03 23:38 | 2.58245 | 101.80613 | 2993 ft | 184 kts | 324° |
| 2026-05-03 23:39 | 2.59278 | 101.79918 | 2769 ft | 175 kts | 326° |
| 2026-05-03 23:39 | 2.60262 | 101.79256 | 2543 ft | 165 kts | 325° |
| 2026-05-03 23:39 | 2.61176 | 101.78639 | 2350 ft | 153 kts | 324° |
| 2026-05-03 23:39 | 2.62068 | 101.78038 | 2152 ft | 161 kts | 326° |
| 2026-05-03 23:40 | 2.63027 | 101.77398 | 1923 ft | 167 kts | 324° |
| 2026-05-03 23:40 | 2.63976 | 101.76752 | 1714 ft | 163 kts | 323° |
| 2026-05-03 23:40 | 2.64913 | 101.76118 | 1520 ft | 161 kts | 325° |
| 2026-05-03 23:40 | 2.65813 | 101.75514 | 1316 ft | 151 kts | 325° |
| 2026-05-03 23:41 | 2.66660 | 101.74945 | 1128 ft | 144 kts | 325° |
| 2026-05-03 23:41 | 2.67471 | 101.74397 | 967 ft | 139 kts | 325° |
| 2026-05-03 23:41 | 2.68279 | 101.73853 | 789 ft | 141 kts | 327° |
| 2026-05-03 23:41 | 2.69084 | 101.73306 | 599 ft | 140 kts | 325° |
| 2026-05-03 23:42 | 2.69885 | 101.72760 | 413 ft | 139 kts | 324° |
| 2026-05-03 23:42 | 2.70690 | 101.72228 | 257 ft | 138 kts | 326° |
| 2026-05-03 23:42 | 2.71492 | 101.71691 | 92 ft | 138 kts | 325° |
| 2026-05-03 23:42 | 2.72252 | 101.71178 | 57 ft | 122 kts | 327° |
| 2026-05-03 23:43 | 2.72792 | 101.70822 | 53 ft | 55 kts | 326° |
| 2026-05-03 23:43 | 2.73057 | 101.70642 | 60 ft | 44 kts | 326° |
| 2026-05-03 23:43 | 2.73309 | 101.70493 | 59 ft | 41 kts | 340° |
| 2026-05-03 23:43 | 2.73564 | 101.70457 | 63 ft | 34 kts | 356° |
| 2026-05-03 23:44 | 2.73700 | 101.70516 | 55 ft | 21 kts | 55° |
| 2026-05-03 23:44 | 2.73759 | 101.70601 | 59 ft | 13 kts | 54° |
| 2026-05-03 23:44 | 2.73801 | 101.70661 | 76 ft | 7 kts | 54° |
| 2026-05-03 23:44 | 2.73837 | 101.70712 | 83 ft | 14 kts | 55° |
| 2026-05-03 23:45 | 2.73905 | 101.70813 | 83 ft | 19 kts | 55° |
| 2026-05-03 23:45 | 2.73985 | 101.70931 | 83 ft | 22 kts | 55° |
| 2026-05-03 23:45 | 2.74073 | 101.71059 | 85 ft | 24 kts | 56° |
| 2026-05-03 23:45 | 2.74170 | 101.71204 | 83 ft | 26 kts | 55° |
| 2026-05-03 23:46 | 2.74273 | 101.71354 | 84 ft | 27 kts | 56° |
| 2026-05-03 23:46 | 2.74364 | 101.71489 | 84 ft | 21 kts | 55° |
| 2026-05-03 23:46 | 2.74427 | 101.71582 | 85 ft | 9 kts | 56° |
| 2026-05-03 23:46 | 2.74454 | 101.71608 | 85 ft | 5 kts | 22° |
| 2026-05-03 23:47 | 2.74492 | 101.71598 | 84 ft | 7 kts | 328° |
| 2026-05-03 23:47 | 2.74523 | 101.71577 | 83 ft | 0 kts | 326° |
| 2026-05-03 23:47 | 2.74525 | 101.71576 | 84 ft | 1 kts | 326° |
| 2026-05-03 23:47 | 2.74526 | 101.71575 | 84 ft | 0 kts | 326° |